In Rescue
 
Open Full Screen Window  High Contrast Mode
Wind Gusting 00 knots
06
March 19, 2019 6:06 PM CDT
Present Weather: Freezing Fog
Weather Information
Wind Direction
  330 °
Wind Speed
  06 kt (7 mph)
Wind Gust
  00 kt (0 mph)
Altimeter
30.15 in
Visibility
1/4 SM
Temperature
-01° C
30° F
Dewpoint
-01° C
30° F
Humidity
100%
1hr Rain Fall
00.00 in.
24hr Rain Fall
00.00 in.
Sky Condition
Overcast @ 300 ft
LIFR

METAR KY63 192306Z AUTO 33006KT 1/4SM FZFG OVC003 M01/M01 A3015 RMK AO2 T10091010

FAA Disclaimer: The data displayed is for advisory purposes only and is not to be used for flight planning or operations.